SWA2134 KSJC-KLAS
Flight info
| Callsign | SWA2134 |
|---|---|
| Flight time | 1h 3m |
| Altitude | 35000 |
| Route | SPTNS1 TECKY NTELL Q174 FLCHR COKTL4 |
| Aircraft | B737/M-SDE2E3FGHIRWXY/LB1 |
Departure
| Time | 2026-05-04 18:11 |
|---|---|
| Airport | Norman Y. Mineta San Jose International Airport (KSJC) |
Arrival
| Time | 2026-05-04 19:14 |
|---|---|
| Airport | Harry Reid International Airport (KLAS) |
| Time | Latitude | Longitude | Altitude | Speed | Heading |
|---|---|---|---|---|---|
| 2026-05-04 17:47 | 37.36436 | -121.92457 | 51 ft | 0 kts | 50° |
| 2026-05-04 18:01 | 37.36425 | -121.92473 | 50 ft | 3 kts | 50° |
| 2026-05-04 18:02 | 37.36402 | -121.92508 | 46 ft | 3 kts | 50° |
| 2026-05-04 18:02 | 37.36389 | -121.92522 | 49 ft | 3 kts | 0° |
| 2026-05-04 18:02 | 37.36383 | -121.92522 | 47 ft | 0 kts | 338° |
| 2026-05-04 18:02 | 37.36382 | -121.92521 | 47 ft | 0 kts | 345° |
| 2026-05-04 18:03 | 37.36381 | -121.92521 | 47 ft | 0 kts | 349° |
| 2026-05-04 18:06 | 37.36389 | -121.92519 | 48 ft | 4 kts | 18° |
| 2026-05-04 18:06 | 37.36372 | -121.92488 | 45 ft | 9 kts | 162° |
| 2026-05-04 18:06 | 37.36298 | -121.92497 | 52 ft | 12 kts | 193° |
| 2026-05-04 18:07 | 37.36224 | -121.92460 | 53 ft | 12 kts | 137° |
| 2026-05-04 18:07 | 37.36154 | -121.92382 | 51 ft | 15 kts | 139° |
| 2026-05-04 18:07 | 37.36066 | -121.92286 | 48 ft | 17 kts | 139° |
| 2026-05-04 18:07 | 37.35978 | -121.92191 | 50 ft | 16 kts | 139° |
| 2026-05-04 18:08 | 37.35894 | -121.92099 | 50 ft | 16 kts | 139° |
| 2026-05-04 18:08 | 37.35813 | -121.92010 | 55 ft | 15 kts | 139° |
| 2026-05-04 18:08 | 37.35743 | -121.91990 | 54 ft | 11 kts | 223° |
| 2026-05-04 18:08 | 37.35687 | -121.92069 | 59 ft | 12 kts | 229° |
| 2026-05-04 18:09 | 37.35602 | -121.92244 | 61 ft | 13 kts | 274° |
| 2026-05-04 18:09 | 37.35638 | -121.92301 | 55 ft | 0 kts | 319° |
| 2026-05-04 18:10 | 37.35640 | -121.92303 | 55 ft | 2 kts | 319° |
| 2026-05-04 18:10 | 37.35727 | -121.92400 | 56 ft | 48 kts | 319° |
| 2026-05-04 18:11 | 37.36159 | -121.92871 | 50 ft | 114 kts | 319° |
| 2026-05-04 18:11 | 37.36878 | -121.93657 | 162 ft | 151 kts | 319° |
| 2026-05-04 18:11 | 37.37702 | -121.94559 | 627 ft | 165 kts | 320° |
| 2026-05-04 18:11 | 37.38604 | -121.95541 | 1096 ft | 175 kts | 318° |
| 2026-05-04 18:12 | 37.39529 | -121.96556 | 1695 ft | 183 kts | 317° |
| 2026-05-04 18:12 | 37.40659 | -121.97520 | 1983 ft | 213 kts | 340° |
| 2026-05-04 18:12 | 37.42195 | -121.97404 | 2283 ft | 237 kts | 26° |
| 2026-05-04 18:12 | 37.43424 | -121.95926 | 2560 ft | 260 kts | 64° |
| 2026-05-04 18:13 | 37.43799 | -121.93701 | 3261 ft | 263 kts | 98° |
| 2026-05-04 18:13 | 37.43164 | -121.91599 | 4232 ft | 257 kts | 132° |
| 2026-05-04 18:13 | 37.40543 | -121.88487 | 5004 ft | 262 kts | 139° |
| 2026-05-04 18:14 | 37.39223 | -121.86924 | 5014 ft | 264 kts | 138° |
| 2026-05-04 18:14 | 37.37910 | -121.85308 | 5023 ft | 264 kts | 136° |
| 2026-05-04 18:14 | 37.36608 | -121.83656 | 5035 ft | 267 kts | 135° |
| 2026-05-04 18:15 | 37.34004 | -121.80296 | 4997 ft | 265 kts | 135° |
| 2026-05-04 18:15 | 37.31416 | -121.77089 | 5106 ft | 264 kts | 139° |
| 2026-05-04 18:15 | 37.30043 | -121.75544 | 5945 ft | 260 kts | 139° |
| 2026-05-04 18:16 | 37.28683 | -121.74021 | 6955 ft | 264 kts | 139° |
| 2026-05-04 18:16 | 37.27300 | -121.72469 | 7887 ft | 267 kts | 138° |
| 2026-05-04 18:16 | 37.25897 | -121.70891 | 8781 ft | 275 kts | 138° |
| 2026-05-04 18:17 | 37.23009 | -121.67636 | 10545 ft | 291 kts | 137° |
| 2026-05-04 18:17 | 37.21428 | -121.65848 | 10842 ft | 317 kts | 137° |
| 2026-05-04 18:17 | 37.18097 | -121.62086 | 12529 ft | 329 kts | 136° |
| 2026-05-04 18:18 | 37.16392 | -121.60161 | 13538 ft | 331 kts | 136° |
| 2026-05-04 18:18 | 37.14658 | -121.58202 | 14319 ft | 340 kts | 137° |
| 2026-05-04 18:18 | 37.12892 | -121.56211 | 15249 ft | 342 kts | 136° |
| 2026-05-04 18:18 | 37.11112 | -121.54205 | 16162 ft | 347 kts | 136° |
| 2026-05-04 18:19 | 37.07547 | -121.50098 | 17990 ft | 352 kts | 129° |
| 2026-05-04 18:19 | 37.06369 | -121.47436 | 18801 ft | 352 kts | 106° |
| 2026-05-04 18:19 | 37.05845 | -121.44447 | 19625 ft | 353 kts | 97° |
| 2026-05-04 18:20 | 37.05528 | -121.41370 | 20389 ft | 358 kts | 95° |
| 2026-05-04 18:20 | 37.05256 | -121.38260 | 21196 ft | 361 kts | 94° |
| 2026-05-04 18:20 | 37.04990 | -121.35118 | 22011 ft | 364 kts | 94° |
| 2026-05-04 18:20 | 37.04714 | -121.31948 | 22797 ft | 368 kts | 94° |
| 2026-05-04 18:21 | 37.04425 | -121.28748 | 23546 ft | 372 kts | 94° |
| 2026-05-04 18:21 | 37.04124 | -121.25517 | 24154 ft | 377 kts | 95° |
| 2026-05-04 18:21 | 37.03811 | -121.22226 | 24611 ft | 385 kts | 95° |
| 2026-05-04 18:21 | 37.03486 | -121.18861 | 25075 ft | 393 kts | 96° |
| 2026-05-04 18:22 | 37.03152 | -121.15447 | 25629 ft | 398 kts | 96° |
| 2026-05-04 18:22 | 37.02811 | -121.11991 | 26170 ft | 403 kts | 96° |
| 2026-05-04 18:22 | 37.02468 | -121.08527 | 26663 ft | 409 kts | 96° |
| 2026-05-04 18:22 | 37.02115 | -121.04976 | 27157 ft | 414 kts | 96° |
| 2026-05-04 18:23 | 37.01756 | -121.01377 | 27611 ft | 421 kts | 98° |
| 2026-05-04 18:23 | 37.01384 | -120.97668 | 27764 ft | 435 kts | 98° |
| 2026-05-04 18:23 | 37.01003 | -120.93877 | 28172 ft | 441 kts | 98° |
| 2026-05-04 18:23 | 37.00616 | -120.90045 | 28670 ft | 446 kts | 99° |
| 2026-05-04 18:24 | 37.00225 | -120.86172 | 29152 ft | 450 kts | 99° |
| 2026-05-04 18:24 | 36.99829 | -120.82262 | 29581 ft | 456 kts | 99° |
| 2026-05-04 18:24 | 36.99426 | -120.78302 | 30000 ft | 461 kts | 99° |
| 2026-05-04 18:24 | 36.99023 | -120.74343 | 30359 ft | 466 kts | 99° |
| 2026-05-04 18:25 | 36.98611 | -120.70310 | 30719 ft | 470 kts | 99° |
| 2026-05-04 18:25 | 36.98193 | -120.66241 | 31084 ft | 473 kts | 100° |
| 2026-05-04 18:25 | 36.97771 | -120.62142 | 31419 ft | 477 kts | 100° |
| 2026-05-04 18:25 | 36.97343 | -120.58004 | 31732 ft | 481 kts | 101° |
| 2026-05-04 18:26 | 36.96912 | -120.53842 | 32038 ft | 485 kts | 101° |
| 2026-05-04 18:26 | 36.96475 | -120.49640 | 32351 ft | 488 kts | 101° |
| 2026-05-04 18:26 | 36.96033 | -120.45402 | 32508 ft | 495 kts | 102° |
| 2026-05-04 18:26 | 36.95580 | -120.41101 | 32689 ft | 502 kts | 102° |
| 2026-05-04 18:27 | 36.95124 | -120.36765 | 32942 ft | 505 kts | 103° |
| 2026-05-04 18:27 | 36.94662 | -120.32393 | 33245 ft | 508 kts | 103° |
| 2026-05-04 18:27 | 36.94202 | -120.28025 | 33722 ft | 506 kts | 103° |
| 2026-05-04 18:27 | 36.93742 | -120.23678 | 34193 ft | 504 kts | 104° |
| 2026-05-04 18:28 | 36.93281 | -120.19330 | 34566 ft | 503 kts | 104° |
| 2026-05-04 18:28 | 36.92819 | -120.15006 | 34962 ft | 501 kts | 104° |
| 2026-05-04 18:28 | 36.91884 | -120.06336 | 35052 ft | 502 kts | 104° |
| 2026-05-04 18:29 | 36.90967 | -119.97832 | 35066 ft | 493 kts | 104° |
| 2026-05-04 18:29 | 36.90700 | -119.89218 | 35075 ft | 507 kts | 88° |
| 2026-05-04 18:30 | 36.92539 | -119.80632 | 35058 ft | 519 kts | 70° |
| 2026-05-04 18:30 | 36.93942 | -119.76468 | 35069 ft | 520 kts | 70° |
| 2026-05-04 18:31 | 36.96789 | -119.68118 | 35071 ft | 522 kts | 70° |
| 2026-05-04 18:31 | 36.99582 | -119.59717 | 35082 ft | 524 kts | 71° |
| 2026-05-04 18:32 | 37.02331 | -119.51273 | 35040 ft | 522 kts | 71° |
| 2026-05-04 18:32 | 37.05032 | -119.42926 | 35034 ft | 516 kts | 71° |
| 2026-05-04 18:33 | 37.07723 | -119.34580 | 35030 ft | 518 kts | 71° |
| 2026-05-04 18:33 | 37.10420 | -119.26206 | 35021 ft | 519 kts | 71° |
| 2026-05-04 18:34 | 37.13118 | -119.17814 | 34994 ft | 519 kts | 71° |
| 2026-05-04 18:34 | 37.15814 | -119.09399 | 34983 ft | 521 kts | 71° |
| 2026-05-04 18:35 | 37.18494 | -119.01009 | 34934 ft | 521 kts | 71° |
| 2026-05-04 18:35 | 37.21186 | -118.92561 | 34919 ft | 521 kts | 71° |
| 2026-05-04 18:36 | 37.23864 | -118.84129 | 34919 ft | 519 kts | 71° |
| 2026-05-04 18:36 | 37.26533 | -118.75693 | 34857 ft | 519 kts | 72° |
| 2026-05-04 18:37 | 37.28259 | -118.66988 | 34871 ft | 507 kts | 91° |
| 2026-05-04 18:37 | 37.28841 | -118.58188 | 34845 ft | 505 kts | 91° |
| 2026-05-04 18:38 | 37.29442 | -118.49396 | 34842 ft | 504 kts | 90° |
| 2026-05-04 18:38 | 37.30079 | -118.40687 | 34885 ft | 506 kts | 90° |
| 2026-05-04 18:39 | 37.30742 | -118.31802 | 34864 ft | 513 kts | 90° |
| 2026-05-04 18:39 | 37.31407 | -118.22886 | 34868 ft | 513 kts | 90° |
| 2026-05-04 18:40 | 37.32062 | -118.13980 | 34831 ft | 511 kts | 90° |
| 2026-05-04 18:40 | 37.32703 | -118.05115 | 34755 ft | 508 kts | 90° |
| 2026-05-04 18:41 | 37.33335 | -117.96288 | 34749 ft | 506 kts | 90° |
| 2026-05-04 18:41 | 37.33852 | -117.88990 | 34776 ft | 503 kts | 90° |
| 2026-05-04 18:42 | 37.34467 | -117.80222 | 34778 ft | 504 kts | 90° |
| 2026-05-04 18:42 | 37.35077 | -117.71467 | 34750 ft | 496 kts | 90° |
| 2026-05-04 18:43 | 37.35668 | -117.62926 | 34756 ft | 486 kts | 90° |
| 2026-05-04 18:43 | 37.35956 | -117.58683 | 34598 ft | 489 kts | 90° |
| 2026-05-04 18:43 | 37.36243 | -117.54411 | 34346 ft | 491 kts | 90° |
| 2026-05-04 18:43 | 37.36530 | -117.50140 | 34128 ft | 491 kts | 90° |
| 2026-05-04 18:44 | 37.36817 | -117.45863 | 33887 ft | 491 kts | 90° |
| 2026-05-04 18:44 | 37.37008 | -117.43016 | 33734 ft | 492 kts | 90° |
| 2026-05-04 18:44 | 37.37391 | -117.37277 | 33389 ft | 493 kts | 90° |
| 2026-05-04 18:44 | 37.37666 | -117.32984 | 33141 ft | 492 kts | 93° |
| 2026-05-04 18:45 | 37.37459 | -117.28756 | 32825 ft | 478 kts | 111° |
| 2026-05-04 18:45 | 37.36374 | -117.24888 | 32610 ft | 461 kts | 126° |
| 2026-05-04 18:45 | 37.34710 | -117.21531 | 32357 ft | 446 kts | 139° |
| 2026-05-04 18:45 | 37.32635 | -117.18698 | 32133 ft | 439 kts | 143° |
| 2026-05-04 18:46 | 37.30536 | -117.15880 | 31832 ft | 443 kts | 142° |
| 2026-05-04 18:46 | 37.28445 | -117.13015 | 31601 ft | 446 kts | 142° |
| 2026-05-04 18:46 | 37.26356 | -117.10118 | 31359 ft | 449 kts | 141° |
| 2026-05-04 18:46 | 37.24285 | -117.07226 | 31124 ft | 451 kts | 142° |
| 2026-05-04 18:47 | 37.22183 | -117.04295 | 30875 ft | 452 kts | 142° |
| 2026-05-04 18:47 | 37.17971 | -116.98430 | 30789 ft | 453 kts | 142° |
| 2026-05-04 18:48 | 37.13745 | -116.92555 | 30774 ft | 453 kts | 142° |
| 2026-05-04 18:48 | 37.09430 | -116.86861 | 30761 ft | 443 kts | 150° |
| 2026-05-04 18:49 | 37.04492 | -116.82564 | 30773 ft | 433 kts | 157° |
| 2026-05-04 18:49 | 36.99478 | -116.78366 | 30788 ft | 434 kts | 156° |
| 2026-05-04 18:50 | 36.94486 | -116.74118 | 30788 ft | 435 kts | 156° |
| 2026-05-04 18:50 | 36.89487 | -116.69842 | 30798 ft | 436 kts | 156° |
| 2026-05-04 18:51 | 36.84478 | -116.65573 | 30799 ft | 435 kts | 156° |
| 2026-05-04 18:51 | 36.79452 | -116.61405 | 30793 ft | 434 kts | 156° |
| 2026-05-04 18:52 | 36.74519 | -116.57085 | 30807 ft | 432 kts | 156° |
| 2026-05-04 18:52 | 36.69557 | -116.52854 | 30353 ft | 434 kts | 157° |
| 2026-05-04 18:52 | 36.67085 | -116.50758 | 29973 ft | 427 kts | 157° |
| 2026-05-04 18:53 | 36.64702 | -116.48520 | 29341 ft | 434 kts | 149° |
| 2026-05-04 18:53 | 36.62600 | -116.45767 | 28821 ft | 439 kts | 141° |
| 2026-05-04 18:53 | 36.60627 | -116.42892 | 28234 ft | 435 kts | 141° |
| 2026-05-04 18:53 | 36.58674 | -116.40052 | 27716 ft | 429 kts | 141° |
| 2026-05-04 18:54 | 36.56729 | -116.37256 | 27156 ft | 425 kts | 141° |
| 2026-05-04 18:54 | 36.54792 | -116.34500 | 26623 ft | 420 kts | 141° |
| 2026-05-04 18:54 | 36.52895 | -116.31820 | 26090 ft | 416 kts | 142° |
| 2026-05-04 18:54 | 36.50990 | -116.29138 | 25577 ft | 412 kts | 142° |
| 2026-05-04 18:55 | 36.49099 | -116.26476 | 25061 ft | 409 kts | 141° |
| 2026-05-04 18:55 | 36.45360 | -116.21218 | 24023 ft | 403 kts | 140° |
| 2026-05-04 18:55 | 36.43507 | -116.18614 | 23514 ft | 401 kts | 140° |
| 2026-05-04 18:56 | 36.41664 | -116.16026 | 22903 ft | 399 kts | 140° |
| 2026-05-04 18:56 | 36.39833 | -116.13457 | 22352 ft | 396 kts | 140° |
| 2026-05-04 18:56 | 36.38017 | -116.10905 | 21802 ft | 392 kts | 140° |
| 2026-05-04 18:56 | 36.36214 | -116.08386 | 21260 ft | 389 kts | 139° |
| 2026-05-04 18:57 | 36.34423 | -116.05879 | 20716 ft | 386 kts | 139° |
| 2026-05-04 18:57 | 36.32472 | -116.03747 | 20174 ft | 361 kts | 161° |
| 2026-05-04 18:57 | 36.30330 | -116.02189 | 19699 ft | 370 kts | 142° |
| 2026-05-04 18:57 | 36.29055 | -115.99354 | 19361 ft | 385 kts | 114° |
| 2026-05-04 18:58 | 36.28135 | -115.96296 | 19122 ft | 367 kts | 127° |
| 2026-05-04 18:58 | 36.26567 | -115.93999 | 18961 ft | 338 kts | 146° |
| 2026-05-04 18:58 | 36.24893 | -115.92063 | 18784 ft | 331 kts | 143° |
| 2026-05-04 18:58 | 36.23336 | -115.89937 | 18474 ft | 334 kts | 138° |
| 2026-05-04 18:59 | 36.21857 | -115.87704 | 18173 ft | 336 kts | 136° |
| 2026-05-04 18:59 | 36.20404 | -115.85426 | 17822 ft | 337 kts | 135° |
| 2026-05-04 18:59 | 36.18971 | -115.83135 | 17479 ft | 336 kts | 135° |
| 2026-05-04 18:59 | 36.17537 | -115.80866 | 17164 ft | 334 kts | 135° |
| 2026-05-04 19:00 | 36.16116 | -115.78619 | 16920 ft | 330 kts | 135° |
| 2026-05-04 19:00 | 36.14702 | -115.76385 | 16597 ft | 328 kts | 135° |
| 2026-05-04 19:00 | 36.13448 | -115.74013 | 16299 ft | 334 kts | 120° |
| 2026-05-04 19:00 | 36.12611 | -115.71327 | 16024 ft | 335 kts | 115° |
| 2026-05-04 19:01 | 36.11827 | -115.68627 | 15698 ft | 331 kts | 115° |
| 2026-05-04 19:01 | 36.11039 | -115.65962 | 15389 ft | 328 kts | 115° |
| 2026-05-04 19:01 | 36.10250 | -115.63336 | 15068 ft | 324 kts | 115° |
| 2026-05-04 19:01 | 36.09458 | -115.60732 | 14757 ft | 322 kts | 115° |
| 2026-05-04 19:02 | 36.08668 | -115.58156 | 14472 ft | 319 kts | 115° |
| 2026-05-04 19:02 | 36.07890 | -115.55630 | 14183 ft | 317 kts | 115° |
| 2026-05-04 19:02 | 36.07106 | -115.53092 | 13897 ft | 315 kts | 115° |
| 2026-05-04 19:02 | 36.06327 | -115.50571 | 13578 ft | 313 kts | 114° |
| 2026-05-04 19:03 | 36.05553 | -115.48066 | 13233 ft | 311 kts | 115° |
| 2026-05-04 19:03 | 36.04784 | -115.45596 | 12945 ft | 306 kts | 116° |
| 2026-05-04 19:03 | 36.04024 | -115.43142 | 12654 ft | 306 kts | 115° |
| 2026-05-04 19:03 | 36.03259 | -115.40676 | 12384 ft | 308 kts | 116° |
| 2026-05-04 19:04 | 36.02492 | -115.38208 | 12070 ft | 306 kts | 115° |
| 2026-05-04 19:04 | 36.01744 | -115.35752 | 11785 ft | 304 kts | 113° |
| 2026-05-04 19:04 | 36.01380 | -115.33163 | 11494 ft | 308 kts | 97° |
| 2026-05-04 19:04 | 36.01298 | -115.30528 | 11215 ft | 306 kts | 96° |
| 2026-05-04 19:05 | 36.01210 | -115.27910 | 10926 ft | 304 kts | 97° |
| 2026-05-04 19:05 | 36.01107 | -115.25312 | 10660 ft | 302 kts | 97° |
| 2026-05-04 19:05 | 36.00993 | -115.22733 | 10383 ft | 300 kts | 98° |
| 2026-05-04 19:05 | 36.00873 | -115.20179 | 10087 ft | 295 kts | 98° |
| 2026-05-04 19:06 | 36.00751 | -115.17668 | 9812 ft | 290 kts | 98° |
| 2026-05-04 19:06 | 36.00630 | -115.15237 | 9527 ft | 284 kts | 98° |
| 2026-05-04 19:06 | 36.00509 | -115.12830 | 9239 ft | 277 kts | 98° |
| 2026-05-04 19:06 | 36.00392 | -115.10495 | 8965 ft | 267 kts | 99° |
| 2026-05-04 19:07 | 36.00279 | -115.08247 | 8712 ft | 258 kts | 98° |
| 2026-05-04 19:07 | 36.00167 | -115.06069 | 8477 ft | 251 kts | 99° |
| 2026-05-04 19:07 | 36.00058 | -115.03937 | 8257 ft | 246 kts | 99° |
| 2026-05-04 19:07 | 35.99947 | -115.01840 | 8020 ft | 244 kts | 98° |
| 2026-05-04 19:08 | 35.99895 | -114.99750 | 7719 ft | 243 kts | 96° |
| 2026-05-04 19:08 | 35.99886 | -114.97665 | 7379 ft | 242 kts | 96° |
| 2026-05-04 19:08 | 35.99877 | -114.95599 | 7102 ft | 240 kts | 95° |
| 2026-05-04 19:08 | 35.99936 | -114.93534 | 6791 ft | 244 kts | 83° |
| 2026-05-04 19:09 | 36.00747 | -114.91676 | 6451 ft | 255 kts | 42° |
| 2026-05-04 19:09 | 36.02247 | -114.90523 | 6187 ft | 254 kts | 25° |
| 2026-05-04 19:09 | 36.03963 | -114.90137 | 5783 ft | 250 kts | 348° |
| 2026-05-04 19:09 | 36.05552 | -114.90803 | 5528 ft | 237 kts | 329° |
| 2026-05-04 19:10 | 36.06812 | -114.92004 | 5165 ft | 221 kts | 296° |
| 2026-05-04 19:10 | 36.07184 | -114.93683 | 4989 ft | 194 kts | 264° |
| 2026-05-04 19:10 | 36.07267 | -114.95323 | 4740 ft | 190 kts | 272° |
| 2026-05-04 19:10 | 36.07419 | -114.96897 | 4497 ft | 178 kts | 263° |
| 2026-05-04 19:11 | 36.07396 | -114.98400 | 4279 ft | 174 kts | 263° |
| 2026-05-04 19:11 | 36.07379 | -114.99869 | 4060 ft | 168 kts | 263° |
| 2026-05-04 19:11 | 36.07380 | -115.01273 | 3874 ft | 156 kts | 263° |
| 2026-05-04 19:11 | 36.07375 | -115.02558 | 3654 ft | 144 kts | 264° |
| 2026-05-04 19:12 | 36.07361 | -115.03742 | 3456 ft | 134 kts | 264° |
| 2026-05-04 19:12 | 36.07358 | -115.05952 | 3153 ft | 123 kts | 263° |
| 2026-05-04 19:12 | 36.07373 | -115.07022 | 3024 ft | 127 kts | 262° |
| 2026-05-04 19:13 | 36.07371 | -115.08148 | 2802 ft | 133 kts | 261° |
| 2026-05-04 19:13 | 36.07365 | -115.09292 | 2641 ft | 135 kts | 260° |
| 2026-05-04 19:13 | 36.07370 | -115.10408 | 2523 ft | 127 kts | 259° |
| 2026-05-04 19:13 | 36.07366 | -115.11473 | 2313 ft | 121 kts | 263° |
| 2026-05-04 19:14 | 36.07361 | -115.12544 | 2170 ft | 132 kts | 269° |
| 2026-05-04 19:14 | 36.07364 | -115.13652 | 2117 ft | 114 kts | 270° |
| 2026-05-04 19:14 | 36.07365 | -115.14418 | 2128 ft | 53 kts | 270° |
| 2026-05-04 19:14 | 36.07366 | -115.14696 | 2124 ft | 18 kts | 271° |
| 2026-05-04 19:15 | 36.07392 | -115.14859 | 2125 ft | 20 kts | 287° |
| 2026-05-04 19:15 | 36.07449 | -115.15008 | 2121 ft | 15 kts | 300° |
| 2026-05-04 19:15 | 36.07520 | -115.15124 | 2122 ft | 18 kts | 327° |
| 2026-05-04 19:15 | 36.07592 | -115.15169 | 2127 ft | 12 kts | 334° |
| 2026-05-04 19:16 | 36.07673 | -115.15218 | 2129 ft | 15 kts | 334° |
| 2026-05-04 19:16 | 36.07770 | -115.15263 | 2130 ft | 14 kts | 2° |
| 2026-05-04 19:16 | 36.07840 | -115.15212 | 2127 ft | 6 kts | 30° |
| 2026-05-04 19:16 | 36.07892 | -115.15201 | 2128 ft | 9 kts | 0° |
| 2026-05-04 19:17 | 36.07967 | -115.15202 | 2128 ft | 13 kts | 359° |
| 2026-05-04 19:17 | 36.08068 | -115.15204 | 2124 ft | 16 kts | 2° |
| 2026-05-04 19:17 | 36.08167 | -115.15154 | 2121 ft | 15 kts | 20° |
| 2026-05-04 19:17 | 36.08239 | -115.15144 | 2118 ft | 5 kts | 44° |
| 2026-05-04 19:18 | 36.08243 | -115.15140 | 2116 ft | 0 kts | 45° |